Time;durP1;ratioP1;P1;durP2;ratioP2;P2;SDS_P1;SDS_P2;PMS_P1;PMS_P2;Temp;Humidity;BMP_temperature;BMP_pressure;BME280_temperature;BME280_humidity;BME280_pressure;Samples;Min_cycle;Max_cycle;Signal;HPM_P1;HPM_P2
2022/05/12 00:01:45;;;;;;;5.05;2.63;;;12.00;99.90;;;;;;4130425;28;20080;-85
2022/05/12 00:03:47;;;;;;;3.00;2.75;;;11.90;99.90;;;;;;4180156;28;20657;-84
2022/05/12 00:05:50;;;;;;;5.20;2.63;;;11.80;99.90;;;;;;4162336;28;20143;-85
2022/05/12 00:07:52;;;;;;;2.95;2.83;;;11.70;99.90;;;;;;4162607;28;20049;-85
2022/05/12 00:09:55;;;;;;;2.30;2.20;;;11.70;99.90;;;;;;4179114;28;20516;-85
2022/05/12 00:11:57;;;;;;;3.60;3.40;;;11.70;99.90;;;;;;4179142;28;20060;-84
2022/05/12 00:14:00;;;;;;;2.92;2.72;;;11.80;99.90;;;;;;4162267;28;20072;-85
2022/05/12 00:16:03;;;;;;;3.97;3.70;;;11.80;99.90;;;;;;4179938;28;20049;-84
2022/05/12 00:18:08;;;;;;;3.88;3.78;;;11.90;99.90;;;;;;4162081;28;20554;-85
2022/05/12 00:20:12;;;;;;;4.00;3.13;;;12.00;99.90;;;;;;4180085;28;20135;-84
2022/05/12 00:22:15;;;;;;;4.82;3.78;;;11.80;99.90;;;;;;4170394;28;20056;-85
2022/05/12 00:24:17;;;;;;;3.53;3.03;;;11.90;99.90;;;;;;4162410;28;20057;-85
2022/05/12 00:26:19;;;;;;;3.53;3.05;;;11.80;99.90;;;;;;4178827;28;20056;-84
2022/05/12 00:28:25;;;;;;;2.63;2.38;;;11.80;99.90;;;;;;4172392;28;20045;-85
2022/05/12 00:30:27;;;;;;;2.28;2.17;;;11.70;99.90;;;;;;4178966;28;20155;-85
2022/05/12 00:32:31;;;;;;;3.05;2.88;;;11.60;99.90;;;;;;4179272;28;20045;-85
2022/05/12 00:34:33;;;;;;;5.63;3.15;;;11.50;99.90;;;;;;4179371;28;20481;-85
2022/05/12 00:36:36;;;;;;;2.55;2.45;;;11.50;99.90;;;;;;4178188;28;20045;-85
2022/05/12 00:38:39;;;;;;;4.88;2.60;;;11.40;99.90;;;;;;4161945;28;20057;-84
2022/05/12 00:41:06;;;;;;;2.35;2.25;;;11.40;99.90;;;;;;4178480;28;20047;-85
2022/05/12 00:43:51;;;;;;;3.10;2.70;;;11.50;99.90;;;;;;4144434;28;20048;-85
2022/05/12 00:45:53;;;;;;;2.45;2.35;;;11.40;99.90;;;;;;4111647;28;20055;-85
2022/05/12 00:47:55;;;;;;;3.10;3.00;;;11.40;99.90;;;;;;4118013;28;20404;-85
2022/05/12 00:49:57;;;;;;;4.15;2.10;;;11.40;99.90;;;;;;4128946;28;20064;-85
2022/05/12 00:52:16;;;;;;;2.58;2.58;;;11.30;99.90;;;;;;4128061;28;20066;-85
2022/05/12 00:54:44;;;;;;;2.90;2.50;;;11.20;99.90;;;;;;4133935;28;20064;-85
2022/05/12 00:56:48;;;;;;;3.20;3.10;;;11.20;99.90;;;;;;4127935;28;20050;-85
2022/05/12 00:59:01;;;;;;;2.20;2.10;;;11.20;99.90;;;;;;4115744;28;20510;-85
2022/05/12 01:01:08;;;;;;;5.57;3.20;;;11.10;99.90;;;;;;4128206;28;20081;-84
2022/05/12 01:03:15;;;;;;;3.83;2.35;;;11.00;99.90;;;;;;4127857;28;20601;-84
2022/05/12 01:05:18;;;;;;;3.92;3.65;;;10.90;99.90;;;;;;4127708;28;20058;-85
2022/05/12 01:07:20;;;;;;;3.22;3.10;;;11.00;99.90;;;;;;4127592;28;20135;-85
2022/05/12 01:09:22;;;;;;;3.20;2.85;;;11.00;99.90;;;;;;4127792;28;20470;-85
2022/05/12 01:11:25;;;;;;;3.38;3.20;;;10.90;99.90;;;;;;4143967;28;20538;-85
2022/05/12 01:13:28;;;;;;;3.22;3.03;;;10.90;99.90;;;;;;4137475;28;20060;-85
2022/05/12 01:15:32;;;;;;;2.97;2.72;;;11.00;99.90;;;;;;4144000;28;20046;-85
2022/05/12 01:17:35;;;;;;;3.20;2.55;;;11.00;99.90;;;;;;4127584;28;20054;-85
2022/05/12 01:19:40;;;;;;;3.05;2.85;;;11.00;99.90;;;;;;4133458;28;20143;-85
2022/05/12 01:21:43;;;;;;;2.67;2.60;;;10.90;99.90;;;;;;4178755;28;20057;-85
2022/05/12 01:23:48;;;;;;;3.40;2.75;;;10.80;99.90;;;;;;4178746;28;20053;-85
2022/05/12 01:26:05;;;;;;;3.22;3.13;;;10.90;99.90;;;;;;4178655;28;20048;-84
2022/05/12 01:28:07;;;;;;;3.22;2.75;;;10.70;99.90;;;;;;4161459;28;20144;-85
2022/05/12 01:30:12;;;;;;;2.97;2.15;;;10.70;99.90;;;;;;4145049;28;20050;-85
2022/05/12 01:32:15;;;;;;;3.42;3.13;;;10.70;99.90;;;;;;4168559;28;20085;-84
2022/05/12 01:34:17;;;;;;;3.22;3.10;;;10.60;99.90;;;;;;4177368;28;20523;-85
2022/05/12 01:36:20;;;;;;;3.35;3.10;;;10.50;99.90;;;;;;4162140;28;20390;-85
2022/05/12 01:38:24;;;;;;;3.35;2.72;;;10.50;99.90;;;;;;4166160;28;20041;-85
2022/05/12 01:40:26;;;;;;;3.42;3.22;;;10.40;99.90;;;;;;4161017;28;20046;-84
2022/05/12 01:42:28;;;;;;;2.83;2.70;;;10.50;99.90;;;;;;4160834;28;20441;-85
2022/05/12 01:44:31;;;;;;;4.03;3.20;;;10.60;99.90;;;;;;4183030;28;20756;-85
2022/05/12 01:46:33;;;;;;;4.00;3.00;;;10.50;99.90;;;;;;4160860;28;20123;-85
2022/05/12 01:48:35;;;;;;;;;;;10.40;99.90;;;;;;4168145;28;20099;-85
2022/05/12 01:50:42;;;;;;;2.55;2.42;;;10.50;99.90;;;;;;4197633;28;19923;-84
2022/05/12 01:52:46;;;;;;;3.90;3.58;;;10.50;99.90;;;;;;4161975;28;20120;-85
2022/05/12 01:54:48;;;;;;;2.22;2.13;;;10.60;99.90;;;;;;4155165;28;20049;-85
2022/05/12 01:56:50;;;;;;;2.70;2.50;;;10.50;99.90;;;;;;4178423;28;20048;-84
2022/05/12 01:58:52;;;;;;;3.38;3.15;;;10.30;99.90;;;;;;4178474;28;20505;-85
2022/05/12 02:00:55;;;;;;;4.82;3.88;;;10.30;99.90;;;;;;4169900;28;20469;-85
2022/05/12 02:03:00;;;;;;;2.83;2.63;;;10.30;99.90;;;;;;4178472;28;20412;-85
2022/05/12 02:05:03;;;;;;;4.10;3.83;;;10.30;99.90;;;;;;4176672;28;20041;-85
2022/05/12 02:07:05;;;;;;;3.80;3.53;;;10.30;99.90;;;;;;4162005;28;20709;-85
2022/05/12 02:09:08;;;;;;;7.50;3.05;;;10.30;99.90;;;;;;4176874;28;20052;-85
2022/05/12 02:11:10;;;;;;;2.80;2.60;;;10.20;99.90;;;;;;4178205;28;20163;-85
2022/05/12 02:13:15;;;;;;;3.60;3.30;;;10.10;99.90;;;;;;4178267;28;20532;-84
2022/05/12 02:15:18;;;;;;;4.45;3.20;;;10.00;99.90;;;;;;4176907;28;20064;-84
2022/05/12 02:17:20;;;;;;;4.22;3.55;;;10.00;99.90;;;;;;4176640;28;20073;-85
2022/05/12 02:19:23;;;;;;;2.67;2.65;;;9.90;99.90;;;;;;4160351;28;20510;-85
2022/05/12 02:21:25;;;;;;;3.17;3.08;;;9.90;99.90;;;;;;4161381;28;20091;-85
2022/05/12 02:23:27;;;;;;;3.47;3.28;;;10.00;99.90;;;;;;4169418;28;20041;-85
2022/05/12 02:25:30;;;;;;;6.32;3.75;;;10.00;99.90;;;;;;4160373;28;20061;-84
2022/05/12 02:27:33;;;;;;;3.67;3.42;;;9.80;99.90;;;;;;4160163;28;20047;-85
2022/05/12 02:29:36;;;;;;;3.40;3.20;;;9.80;99.90;;;;;;4169779;28;20063;-85
2022/05/12 02:31:38;;;;;;;3.35;2.65;;;9.70;99.90;;;;;;4176865;28;20080;-85
2022/05/12 02:33:40;;;;;;;4.45;3.38;;;9.80;99.90;;;;;;4174499;28;20469;-85
2022/05/12 02:35:43;;;;;;;4.22;3.92;;;9.70;99.90;;;;;;4164695;28;20049;-84
2022/05/12 02:37:46;;;;;;;3.05;2.95;;;9.50;99.90;;;;;;4161346;28;20056;-85
2022/05/12 02:39:48;;;;;;;3.35;3.17;;;9.50;99.90;;;;;;4160085;28;20053;-85
2022/05/12 02:41:50;;;;;;;3.60;3.40;;;9.40;99.90;;;;;;4193425;28;20052;-85
2022/05/12 02:43:52;;;;;;;5.55;2.75;;;9.50;99.90;;;;;;4181720;28;20059;-84
2022/05/12 02:45:54;;;;;;;4.45;4.05;;;9.70;99.90;;;;;;4192960;28;20082;-84
2022/05/12 02:47:56;;;;;;;4.30;3.88;;;9.70;99.90;;;;;;4176255;28;20598;-85
2022/05/12 02:49:59;;;;;;;4.40;4.20;;;9.60;99.90;;;;;;4170523;28;20064;-85
2022/05/12 02:52:02;;;;;;;4.78;4.57;;;9.70;99.90;;;;;;4169636;28;20053;-84
2022/05/12 02:54:04;;;;;;;3.75;3.45;;;9.70;99.90;;;;;;4176826;28;20056;-85
2022/05/12 02:56:07;;;;;;;6.18;3.63;;;9.80;99.90;;;;;;4192727;28;20052;-85
2022/05/12 02:58:11;;;;;;;3.58;3.38;;;9.90;99.90;;;;;;4197778;28;20055;-85
2022/05/12 03:00:16;;;;;;;2.90;2.67;;;9.70;99.90;;;;;;4197463;28;20475;-85
2022/05/12 03:02:18;;;;;;;3.85;3.10;;;9.50;99.90;;;;;;4197940;28;20109;-84
2022/05/12 03:04:23;;;;;;;3.72;3.53;;;9.40;99.90;;;;;;4196429;28;20037;-85
2022/05/12 03:06:27;;;;;;;4.38;4.15;;;9.30;99.90;;;;;;4197622;28;20051;-84
2022/05/12 03:08:29;;;;;;;2.70;2.60;;;9.30;99.90;;;;;;4197805;28;20518;-84
2022/05/12 03:10:32;;;;;;;3.55;3.35;;;9.30;99.90;;;;;;4197515;28;20041;-84
2022/05/12 03:12:36;;;;;;;4.65;4.38;;;9.40;99.90;;;;;;4196135;28;20057;-85
2022/05/12 03:14:38;;;;;;;4.20;2.90;;;9.40;99.90;;;;;;4179514;28;20834;-85
2022/05/12 03:16:40;;;;;;;7.88;3.95;;;9.40;99.90;;;;;;4180001;28;20135;-85
2022/05/12 03:18:46;;;;;;;4.97;4.07;;;9.40;99.90;;;;;;4179453;28;20053;-84
2022/05/12 03:20:48;;;;;;;3.90;3.70;;;9.30;99.90;;;;;;4179241;28;20092;-84
2022/05/12 03:22:59;;;;;;;4.68;4.30;;;9.30;99.90;;;;;;4197432;28;20052;-84
2022/05/12 03:25:04;;;;;;;5.55;5.25;;;9.40;99.90;;;;;;4196063;28;20044;-85
2022/05/12 03:27:08;;;;;;;4.70;3.95;;;9.50;99.90;;;;;;4197024;28;20040;-85
2022/05/12 03:29:11;;;;;;;2.92;2.92;;;9.40;99.90;;;;;;4179492;28;20071;-85
2022/05/12 03:31:13;;;;;;;4.00;3.60;;;9.40;99.90;;;;;;4179363;28;20041;-85
2022/05/12 03:33:15;;;;;;;4.18;4.00;;;9.40;99.90;;;;;;4162916;28;20056;-85
2022/05/12 03:35:18;;;;;;;4.43;4.13;;;9.30;99.90;;;;;;4180776;28;20370;-85
2022/05/12 03:37:20;;;;;;;5.38;4.20;;;9.10;99.90;;;;;;4163114;28;20045;-85
2022/05/12 03:39:23;;;;;;;4.20;3.83;;;9.00;99.90;;;;;;4167879;28;20048;-85
2022/05/12 03:41:25;;;;;;;4.45;4.25;;;9.00;99.90;;;;;;4198803;28;20083;-84
2022/05/12 03:45:48;;;;;;;3.95;3.55;;;8.90;99.90;;;;;;4185310;28;20480;-85
2022/05/12 03:47:51;;;;;;;3.58;3.40;;;9.00;99.90;;;;;;4181326;28;20053;-85
2022/05/12 03:49:57;;;;;;;3.05;2.95;;;8.90;99.90;;;;;;4192068;28;20037;-85
2022/05/12 03:51:59;;;;;;;4.57;3.92;;;8.90;99.90;;;;;;4184091;28;20563;-85
2022/05/12 03:54:03;;;;;;;4.10;4.00;;;9.00;99.90;;;;;;4180760;28;20128;-84
2022/05/12 03:56:08;;;;;;;3.80;3.40;;;9.00;99.90;;;;;;4187021;28;20044;-85
2022/05/12 03:58:10;;;;;;;3.65;3.13;;;9.00;99.90;;;;;;4181088;28;20045;-85
2022/05/12 04:00:18;;;;;;;3.67;3.58;;;9.00;99.90;;;;;;4196794;28;20051;-85
2022/05/12 04:02:21;;;;;;;6.53;3.33;;;8.90;99.90;;;;;;4196670;28;20053;-84
2022/05/12 04:04:26;;;;;;;4.93;4.45;;;8.80;99.90;;;;;;4196522;28;20054;-84
2022/05/12 04:06:28;;;;;;;3.22;3.13;;;8.80;99.90;;;;;;4195031;28;20504;-85
2022/05/12 04:08:31;;;;;;;2.67;2.47;;;8.70;99.90;;;;;;4195528;28;20052;-85
2022/05/12 04:10:34;;;;;;;4.20;3.95;;;8.60;99.90;;;;;;4196499;28;20041;-85
2022/05/12 04:12:36;;;;;;;3.78;3.58;;;8.60;99.90;;;;;;4196361;28;20049;-85
2022/05/12 04:14:40;;;;;;;2.92;2.75;;;8.60;99.90;;;;;;4173740;28;20053;-85
2022/05/12 04:16:44;;;;;;;2.65;2.65;;;8.60;99.90;;;;;;4179852;28;20701;-85
2022/05/12 04:18:47;;;;;;;4.65;2.80;;;8.60;99.90;;;;;;4181837;28;20053;-84
2022/05/12 04:20:49;;;;;;;3.65;3.45;;;8.70;99.90;;;;;;4182658;28;20087;-85
2022/05/12 04:22:51;;;;;;;3.55;2.95;;;8.80;99.90;;;;;;4196341;28;20049;-85
2022/05/12 04:24:54;;;;;;;4.28;3.55;;;8.90;99.90;;;;;;4194930;28;20045;-85
2022/05/12 04:26:57;;;;;;;3.63;3.47;;;8.80;99.90;;;;;;4178632;28;20052;-84
2022/05/12 04:29:00;;;;;;;4.22;3.95;;;8.90;99.90;;;;;;4196225;28;20060;-85
2022/05/12 04:31:02;;;;;;;3.83;3.72;;;8.80;99.90;;;;;;4187266;28;20041;-84
2022/05/12 04:35:25;;;;;;;3.72;3.22;;;8.70;99.90;;;;;;4195045;28;20059;-84
2022/05/12 04:37:30;;;;;;;4.22;3.70;;;8.70;99.90;;;;;;4196048;28;20063;-85
2022/05/12 04:39:33;;;;;;;3.35;3.25;;;8.60;99.90;;;;;;4194995;28;20051;-84
2022/05/12 04:41:39;;;;;;;4.63;3.65;;;8.60;99.90;;;;;;4178620;28;20053;-84
2022/05/12 04:43:42;;;;;;;4.05;3.75;;;8.50;99.90;;;;;;4194435;28;20039;-85
2022/05/12 04:45:43;;;;;;;5.78;3.83;;;8.50;99.90;;;;;;4178471;28;20513;-85
2022/05/12 04:47:47;;;;;;;4.72;2.88;;;8.50;99.90;;;;;;4178087;28;20064;-85
2022/05/12 04:49:50;;;;;;;3.58;3.30;;;8.60;99.90;;;;;;4169252;28;20053;-84
2022/05/12 04:51:52;;;;;;;4.00;3.70;;;8.50;99.90;;;;;;4191110;28;20068;-85
2022/05/12 04:53:59;;;;;;;3.03;2.83;;;8.60;99.90;;;;;;4165663;28;20057;-84
2022/05/12 04:56:02;;;;;;;4.53;3.95;;;8.70;99.90;;;;;;4165933;28;20679;-84
2022/05/12 04:58:04;;;;;;;4.32;4.03;;;8.70;99.90;;;;;;4194347;28;20102;-84
2022/05/12 05:00:09;;;;;;;4.28;4.07;;;8.80;99.90;;;;;;4194457;28;20060;-84
2022/05/12 05:02:11;;;;;;;4.43;4.00;;;8.90;99.90;;;;;;4195414;28;20049;-84
2022/05/12 05:04:13;;;;;;;4.47;4.00;;;8.90;99.90;;;;;;4177959;28;20531;-85
2022/05/12 05:06:16;;;;;;;4.78;4.40;;;8.90;99.90;;;;;;4194490;28;20057;-85
2022/05/12 05:08:21;;;;;;;4.43;4.03;;;8.80;99.90;;;;;;4177806;28;20056;-85
2022/05/12 05:10:24;;;;;;;4.70;4.03;;;9.00;99.90;;;;;;4177897;28;20059;-84
2022/05/12 05:12:26;;;;;;;4.00;3.90;;;9.00;99.90;;;;;;4177759;28;20052;-85
2022/05/12 05:14:28;;;;;;;5.95;4.35;;;8.90;99.90;;;;;;4179104;28;20049;-84
2022/05/12 05:16:30;;;;;;;4.50;3.85;;;8.90;99.90;;;;;;4193213;28;20763;-85
2022/05/12 05:18:32;;;;;;;4.38;4.10;;;8.90;99.90;;;;;;4168506;28;20126;-84
2022/05/12 05:20:34;;;;;;;4.72;4.43;;;8.90;99.90;;;;;;4195332;28;20068;-83
2022/05/12 05:22:37;;;;;;;4.03;3.83;;;9.00;99.90;;;;;;4177340;28;20055;-85
2022/05/12 05:24:40;;;;;;;3.17;3.08;;;9.20;99.90;;;;;;4193341;28;20063;-83
2022/05/12 05:26:42;;;;;;;4.55;4.35;;;9.10;99.90;;;;;;4194221;28;20141;-84
2022/05/12 05:28:44;;;;;;;5.13;4.90;;;9.10;99.90;;;;;;4194547;28;20040;-84
2022/05/12 05:30:47;;;;;;;4.95;4.70;;;9.30;99.90;;;;;;4177434;28;20439;-84
2022/05/12 05:32:51;;;;;;;4.85;4.60;;;9.30;99.90;;;;;;4195172;28;20182;-84
2022/05/12 05:34:53;;;;;;;4.47;3.92;;;9.40;99.90;;;;;;4194070;28;20516;-84
2022/05/12 05:36:56;;;;;;;;;;;9.40;99.90;;;;;;4177290;28;20100;-83
2022/05/12 05:38:59;;;;;;;5.28;4.90;;;9.60;99.90;;;;;;4177787;28;19927;-83
2022/05/12 05:41:01;;;;;;;6.10;4.95;;;9.70;99.90;;;;;;4191817;28;20052;-83
2022/05/12 05:43:05;;;;;;;5.18;4.78;;;9.70;99.90;;;;;;4195010;28;20044;-84
2022/05/12 05:45:12;;;;;;;5.38;5.05;;;9.80;99.90;;;;;;4193457;28;20086;-84
2022/05/12 05:47:16;;;;;;;5.60;5.20;;;9.90;99.90;;;;;;4177203;28;20045;-85
2022/05/12 05:49:18;;;;;;;5.00;4.20;;;10.00;99.90;;;;;;4192663;28;20044;-85
2022/05/12 05:53:42;;;;;;;5.25;4.40;;;10.10;99.90;;;;;;4195352;28;20519;-85
2022/05/12 05:55:45;;;;;;;7.72;4.13;;;10.20;99.90;;;;;;4177357;28;20049;-85
2022/05/12 05:57:47;;;;;;;4.55;4.40;;;10.30;99.90;;;;;;4177261;28;20620;-85
2022/05/12 05:59:50;;;;;;;;;;;10.30;99.90;;;;;;4165962;28;20055;-85
2022/05/12 06:01:52;;;;;;;4.75;4.40;;;10.60;99.90;;;;;;4194155;28;19924;-85
2022/05/12 06:03:56;;;;;;;3.97;3.78;;;10.70;99.90;;;;;;4177266;28;20053;-85
2022/05/12 06:05:58;;;;;;;4.25;3.97;;;10.90;99.90;;;;;;4194994;28;20511;-85
2022/05/12 06:08:01;;;;;;;3.95;3.80;;;11.10;99.90;;;;;;4168604;28;20132;-85
2022/05/12 06:10:06;;;;;;;5.07;4.28;;;11.50;99.90;;;;;;4170268;28;20064;-85
2022/05/12 06:12:11;;;;;;;3.63;3.47;;;11.70;99.90;;;;;;4171823;28;20052;-85
2022/05/12 06:14:15;;;;;;;4.65;4.35;;;11.60;99.90;;;;;;4195022;28;20099;-85
2022/05/12 06:16:19;;;;;;;4.30;4.03;;;11.60;99.90;;;;;;4195019;28;20051;-85
2022/05/12 06:18:21;;;;;;;3.90;3.80;;;11.70;99.90;;;;;;4177023;28;20048;-85
2022/05/12 06:20:24;;;;;;;4.30;4.00;;;11.70;99.90;;;;;;4177607;28;20438;-85
2022/05/12 06:22:26;;;;;;;3.60;3.40;;;11.80;99.90;;;;;;4167320;28;20037;-85
2022/05/12 06:24:28;;;;;;;3.80;3.67;;;12.20;99.90;;;;;;4177189;28;20045;-85
2022/05/12 06:26:31;;;;;;;4.03;3.72;;;12.30;99.90;;;;;;4193698;28;20067;-85
2022/05/12 06:28:33;;;;;;;4.50;4.22;;;12.40;99.90;;;;;;4190099;28;20045;-85
2022/05/12 06:30:38;;;;;;;2.83;2.72;;;12.40;99.90;;;;;;4160388;28;20049;-85
2022/05/12 06:32:41;;;;;;;4.35;4.15;;;12.50;99.90;;;;;;4172986;28;20116;-85
2022/05/12 06:34:45;;;;;;;3.75;3.65;;;12.60;99.90;;;;;;4182813;28;20059;-85
2022/05/12 06:36:51;;;;;;;3.92;2.88;;;12.90;99.90;;;;;;4194327;28;20032;-85
2022/05/12 06:38:53;;;;;;;3.40;3.30;;;13.00;99.90;;;;;;4195016;28;20036;-85
2022/05/12 06:40:55;;;;;;;2.90;2.80;;;13.50;99.90;;;;;;4193337;28;20090;-85
2022/05/12 06:42:58;;;;;;;2.30;2.10;;;13.80;99.90;;;;;;4194909;28;20429;-85
2022/05/12 06:45:01;;;;;;;2.95;2.75;;;14.50;99.90;;;;;;4184416;28;20053;-85
2022/05/12 06:47:07;;;;;;;3.05;2.92;;;14.40;99.90;;;;;;4160408;28;20483;-86
2022/05/12 06:49:09;;;;;;;3.40;2.92;;;14.40;99.90;;;;;;4160194;28;20124;-85
2022/05/12 06:51:12;;;;;;;4.82;4.45;;;14.80;99.90;;;;;;4185897;28;20067;-85
2022/05/12 06:53:14;;;;;;;2.53;2.33;;;14.90;99.90;;;;;;4160432;28;20054;-85
2022/05/12 06:55:17;;;;;;;;;;;14.90;99.90;;;;;;4160915;28;20436;-85
2022/05/12 06:57:22;;;;;;;2.55;2.03;;;14.90;99.90;;;;;;4160650;28;19925;-85
2022/05/12 06:59:26;;;;;;;2.30;2.10;;;14.60;99.90;;;;;;4177911;28;20063;-86
2022/05/12 07:01:29;;;;;;;2.88;2.40;;;14.70;99.90;;;;;;4160479;28;20049;-85
2022/05/12 07:03:31;;;;;;;2.40;1.80;;;15.10;99.90;;;;;;4178285;28;20396;-85
2022/05/12 07:05:38;;;;;;;1.83;1.73;;;15.30;99.90;;;;;;4177911;28;20045;-86
2022/05/12 07:07:43;;;;;;;2.65;2.53;;;15.50;99.90;;;;;;4184353;28;20090;-85
2022/05/12 07:09:46;;;;;;;4.80;2.72;;;15.60;99.90;;;;;;4176943;28;20052;-85
2022/05/12 07:11:54;;;;;;;2.90;1.98;;;15.80;99.90;;;;;;4176725;28;20068;-85
2022/05/12 07:13:57;;;;;;;4.50;2.63;;;15.70;99.90;;;;;;4176683;28;20045;-85
2022/05/12 07:16:02;;;;;;;1.95;1.85;;;15.90;99.90;;;;;;4177051;28;20116;-86
2022/05/12 07:18:05;;;;;;;2.13;2.03;;;16.20;99.90;;;;;;4169488;28;20112;-85
2022/05/12 07:27:18;;;;;;;1.77;1.63;;;16.60;99.90;;;;;;4194645;28;20052;-85
2022/05/12 07:29:27;;;;;;;3.15;1.90;;;16.70;99.90;;;;;;4193154;28;20704;-86
2022/05/12 07:31:30;;;;;;;4.63;1.90;;;17.20;99.90;;;;;;4176701;28;20084;-86
2022/05/12 07:33:34;;;;;;;;;;;17.50;99.90;;;;;;4181533;28;20115;-85
2022/05/12 07:35:36;;;;;;;1.90;1.50;;;17.50;99.90;;;;;;4159309;28;19921;-85
2022/05/12 07:37:41;;;;;;;1.77;1.25;;;17.60;99.90;;;;;;4177683;28;20124;-86
2022/05/12 07:39:43;;;;;;;6.25;2.05;;;18.00;99.90;;;;;;4177509;28;20058;-86
2022/05/12 07:41:45;;;;;;;1.70;1.30;;;18.00;99.90;;;;;;4160471;28;20053;-86
2022/05/12 07:43:48;;;;;;;1.42;1.33;;;18.00;99.90;;;;;;4170173;28;20132;-85
2022/05/12 07:45:50;;;;;;;;;;;18.20;99.90;;;;;;4197613;28;20052;-86
2022/05/12 07:47:53;;;;;;;1.10;1.10;;;18.20;99.90;;;;;;4180068;28;20010;-86
2022/05/12 07:49:55;;;;;;;1.98;1.10;;;17.70;99.90;;;;;;4178825;28;20144;-85
2022/05/12 07:51:59;;;;;;;1.60;1.10;;;18.10;99.90;;;;;;4179496;28;20077;-85
2022/05/12 07:54:01;;;;;;;1.10;1.10;;;18.60;99.90;;;;;;4188186;28;20100;-85
2022/05/12 07:56:03;;;;;;;11.30;2.58;;;18.70;99.90;;;;;;4162807;28;20656;-85
2022/05/12 07:58:06;;;;;;;1.15;1.15;;;18.70;99.90;;;;;;4179233;28;20045;-85
2022/05/12 08:00:10;;;;;;;0.90;0.90;;;19.10;99.90;;;;;;4179026;28;20048;-85
2022/05/12 08:02:16;;;;;;;1.10;1.10;;;19.00;99.90;;;;;;4179288;28;20086;-86
2022/05/12 08:04:19;;;;;;;1.00;1.00;;;19.00;99.90;;;;;;4179170;28;20607;-85
2022/05/12 08:06:21;;;;;;;2.13;1.10;;;19.00;99.90;;;;;;4184374;28;20136;-86
2022/05/12 08:08:23;;;;;;;2.20;1.13;;;18.80;99.90;;;;;;4195741;28;20052;-86
2022/05/12 08:10:25;;;;;;;1.83;1.05;;;18.70;99.90;;;;;;4208426;28;20086;-85
2022/05/12 08:12:30;;;;;;;1.13;1.10;;;19.10;99.90;;;;;;4179329;28;20116;-85
2022/05/12 08:14:32;;;;;;;4.95;1.15;;;19.10;99.90;;;;;;4162922;28;20049;-85
2022/05/12 08:16:35;;;;;;;2.13;1.00;;;19.20;99.90;;;;;;4162085;28;20049;-85
2022/05/12 08:18:39;;;;;;;1.15;1.00;;;19.20;99.90;;;;;;4191819;28;20058;-86
2022/05/12 08:20:44;;;;;;;1.10;1.10;;;19.00;99.90;;;;;;4180164;28;20056;-85
2022/05/12 08:22:46;;;;;;;0.90;0.90;;;19.20;99.90;;;;;;4188605;28;20051;-86
2022/05/12 08:24:50;;;;;;;1.70;1.08;;;19.40;99.90;;;;;;4197504;28;20464;-85
2022/05/12 08:26:53;;;;;;;2.15;1.00;;;19.50;99.90;;;;;;4197638;28;20049;-85
2022/05/12 08:28:56;;;;;;;1.15;1.13;;;19.30;99.90;;;;;;4181075;28;20095;-86
2022/05/12 08:30:58;;;;;;;1.38;1.27;;;19.40;99.90;;;;;;4181236;28;20084;-85
2022/05/12 08:33:02;;;;;;;1.33;0.90;;;19.90;99.90;;;;;;4197290;28;20048;-86
2022/05/12 08:35:05;;;;;;;2.08;1.00;;;19.60;99.90;;;;;;4197299;28;20056;-85
2022/05/12 08:37:10;;;;;;;2.83;1.00;;;19.80;99.90;;;;;;4198053;28;20373;-86
2022/05/12 08:39:13;;;;;;;1.00;1.00;;;19.90;99.90;;;;;;4180179;28;20053;-86
2022/05/12 08:41:28;;;;;;;3.03;0.90;;;20.00;99.90;;;;;;4183630;28;20072;-86
2022/05/12 08:43:39;;;;;;;2.83;1.23;;;19.90;99.90;;;;;;4179894;28;20045;-86
2022/05/12 08:45:43;;;;;;;1.20;1.10;;;20.00;99.90;;;;;;4196474;28;20048;-85
2022/05/12 08:47:49;;;;;;;3.25;0.90;;;20.00;99.90;;;;;;4195647;28;20044;-85
2022/05/12 08:49:51;;;;;;;1.92;0.98;;;20.20;99.90;;;;;;4183847;28;20051;-85
2022/05/12 08:52:17;;;;;;;1.80;1.35;;;20.60;99.90;;;;;;4194697;28;20053;-86
2022/05/12 08:54:23;;;;;;;0.80;0.80;;;21.10;99.90;;;;;;4195874;28;20119;-85
2022/05/12 08:56:26;;;;;;;1.60;0.90;;;20.80;99.90;;;;;;4194448;28;20055;-86
2022/05/12 08:58:36;;;;;;;1.40;0.93;;;20.60;99.90;;;;;;4194646;28;20420;-85
2022/05/12 09:00:47;;;;;;;2.85;0.80;;;20.80;99.90;;;;;;4195687;28;20610;-86
2022/05/12 09:03:11;;;;;;;0.80;0.80;;;21.00;99.90;;;;;;4195627;28;20492;-84
2022/05/12 09:05:18;;;;;;;1.10;0.93;;;20.80;99.90;;;;;;4179665;28;20049;-86
2022/05/12 09:07:29;;;;;;;3.33;0.80;;;20.90;99.90;;;;;;4169969;28;20053;-86
2022/05/12 09:09:53;;;;;;;2.03;0.90;;;21.20;99.90;;;;;;4178206;28;20077;-85
2022/05/12 09:12:10;;;;;;;1.05;1.05;;;21.30;99.90;;;;;;4170545;28;20041;-85
2022/05/12 09:14:29;;;;;;;1.50;0.80;;;21.30;99.90;;;;;;4182106;28;20063;-86
2022/05/12 09:16:32;;;;;;;2.22;0.77;;;21.30;99.90;;;;;;4171487;28;20691;-85
2022/05/12 09:18:36;;;;;;;2.05;0.80;;;21.40;99.90;;;;;;4164133;28;20056;-85
2022/05/12 09:20:39;;;;;;;3.70;0.98;;;21.50;99.90;;;;;;4190141;28;20060;-85
2022/05/12 09:22:42;;;;;;;1.17;1.08;;;21.60;99.90;;;;;;4177922;28;20106;-85
2022/05/12 09:24:44;;;;;;;5.97;0.75;;;21.70;99.90;;;;;;4195378;28;20070;-86
2022/05/12 09:27:06;;;;;;;1.90;0.70;;;21.60;99.90;;;;;;4177679;28;20116;-86
2022/05/12 09:29:08;;;;;;;0.90;0.80;;;21.70;99.90;;;;;;4181172;28;20040;-85
2022/05/12 09:31:13;;;;;;;2.08;0.75;;;22.00;99.90;;;;;;4178117;28;20045;-85
2022/05/12 09:33:30;;;;;;;1.30;0.77;;;21.90;99.90;;;;;;4195392;28;20060;-86
2022/05/12 09:35:34;;;;;;;2.40;0.90;;;22.00;99.90;;;;;;4195235;28;20143;-85
2022/05/12 09:37:40;;;;;;;1.00;1.00;;;21.90;99.90;;;;;;4194023;28;20047;-85
2022/05/12 09:39:50;;;;;;;1.70;0.80;;;21.70;99.90;;;;;;4177580;28;20052;-85
2022/05/12 09:41:52;;;;;;;3.03;0.80;;;21.70;99.90;;;;;;4175296;28;20052;-85
2022/05/12 09:43:54;;;;;;;2.03;0.80;;;22.00;99.90;;;;;;4181856;28;20103;-85
2022/05/12 09:46:08;;;;;;;2.40;0.93;;;22.00;99.90;;;;;;4189155;28;20080;-86
2022/05/12 09:48:17;;;;;;;1.38;0.70;;;22.10;99.90;;;;;;4169033;28;20048;-86
2022/05/12 09:50:28;;;;;;;3.08;1.08;;;22.20;99.90;;;;;;4192264;28;20403;-85
2022/05/12 09:52:32;;;;;;;2.75;0.80;;;22.40;99.90;;;;;;4186136;28;20045;-86
2022/05/12 09:54:35;;;;;;;1.80;0.80;;;22.50;99.40;;;;;;4191016;28;20127;-86
2022/05/12 09:56:39;;;;;;;;;;;22.90;99.90;;;;;;4207046;28;20072;-86
2022/05/12 09:58:50;;;;;;;1.27;0.80;;;22.90;99.90;;;;;;4169990;28;20824;-85
2022/05/12 10:01:05;;;;;;;;;;;22.80;99.90;;;;;;4177673;28;20139;-85
2022/05/12 10:08:18;;;;;;;0.70;0.70;;;22.90;99.40;;;;;;4194607;28;20048;-85
2022/05/12 10:10:30;;;;;;;1.30;0.70;;;23.50;99.90;;;;;;4195199;28;20149;-86
2022/05/12 10:12:46;;;;;;;3.47;0.75;;;23.50;99.20;;;;;;4191315;28;20131;-86
2022/05/12 10:15:03;;;;;;;2.08;1.15;;;22.70;98.30;;;;;;4192721;28;20041;-86
2022/05/12 10:17:35;;;;;;;0.80;0.70;;;22.70;99.70;;;;;;4168026;28;20567;-86
2022/05/12 10:19:40;;;;;;;2.15;1.00;;;23.30;99.90;;;;;;4177428;28;20041;-86
2022/05/12 10:21:52;;;;;;;2.05;0.85;;;23.60;99.20;;;;;;4181211;28;20051;-86
2022/05/12 10:24:02;;;;;;;;;;;23.30;98.90;;;;;;4189012;28;20040;-87
2022/05/12 10:26:08;;;;;;;3.70;0.70;;;23.60;99.00;;;;;;4179787;28;19959;-86
2022/05/12 10:28:11;;;;;;;1.48;0.70;;;23.50;96.90;;;;;;4167631;28;20052;-86
2022/05/12 10:30:57;;;;;;;2.25;0.60;;;23.50;97.10;;;;;;4191110;28;20056;-86
2022/05/12 10:33:32;;;;;;;0.60;0.60;;;23.40;94.80;;;;;;4166999;28;20079;-86
2022/05/12 10:35:47;;;;;;;1.05;0.60;;;23.70;97.60;;;;;;4175807;28;20080;-86
2022/05/12 10:37:58;;;;;;;3.85;0.77;;;24.00;96.10;;;;;;4175095;28;20464;-86
2022/05/12 10:40:29;;;;;;;2.15;0.50;;;24.70;98.10;;;;;;4178008;28;20140;-86
2022/05/12 10:43:12;;;;;;;1.25;0.60;;;25.10;95.50;;;;;;4186760;28;20546;-87
2022/05/12 10:45:19;;;;;;;;;;;25.20;95.60;;;;;;4176153;28;20103;-86
2022/05/12 10:47:45;;;;;;;3.03;1.10;;;24.50;94.60;;;;;;4158348;28;19921;-86
2022/05/12 10:50:06;;;;;;;1.77;0.60;;;24.40;93.60;;;;;;4157815;28;20600;-86
2022/05/12 10:52:14;;;;;;;1.65;0.85;;;24.60;95.80;;;;;;4159310;28;20065;-86
2022/05/12 10:54:33;;;;;;;1.73;0.50;;;24.30;95.50;;;;;;4159061;28;20437;-87
2022/05/12 10:56:41;;;;;;;0.50;0.50;;;25.00;95.70;;;;;;4143091;28;20046;-86
2022/05/12 10:59:05;;;;;;;2.08;0.50;;;25.30;93.70;;;;;;4143216;28;20514;-86
2022/05/12 11:01:12;;;;;;;1.50;0.60;;;25.70;93.50;;;;;;4151560;28;20057;-86
2022/05/12 11:03:34;;;;;;;0.70;0.50;;;25.70;95.10;;;;;;4157038;28;20050;-86
2022/05/12 11:05:59;;;;;;;0.82;0.50;;;25.70;91.90;;;;;;4174849;28;20052;-87
2022/05/12 11:08:29;;;;;;;0.88;0.50;;;25.70;90.30;;;;;;4175649;28;20132;-86
2022/05/12 11:10:54;;;;;;;0.50;0.50;;;25.70;90.80;;;;;;4169451;28;20693;-86
2022/05/12 11:13:08;;;;;;;0.65;0.45;;;26.30;92.40;;;;;;4161912;28;20137;-86
2022/05/12 11:15:25;;;;;;;1.85;0.50;;;26.80;91.80;;;;;;4160048;28;20046;-86
2022/05/12 11:17:56;;;;;;;2.25;0.50;;;27.20;91.40;;;;;;4184174;28;20045;-86
2022/05/12 11:20:30;;;;;;;2.60;0.50;;;27.70;92.30;;;;;;4188472;28;20052;-86